Terminal Aerodrome Forecast
Issued by NWS Wilmington, OH

Current Version | Previous Version | Text Only | Print | Product List | Glossary Off
Versions: 1 2 3 4 5 6 7 8 9 10 11 12 13 14 15 16 17 18 19 20 21 22 23 24 25 26 27

000
FTUS41 KILN 241700
TAFDAY
TAF
KDAY 241739Z 2418/2518 24030G40KT P6SM VCSH OVC025
      TEMPO 2419/2421 OVC018
     FM242200 24025G35KT P6SM OVC030
     FM250400 23014G25KT P6SM OVC025
     FM251100 25012G20KT P6SM OVC022
     FM251600 25012KT P6SM OVC025=

USA.gov is the U.S. government's official web portal to all federal, state and local government web resources and services.